sensor_id;sensor_type;location;lat;lon;timestamp;P1;durP1;ratioP1;P2;durP2;ratioP2
21091;SDS011;10704;42.678;23.288;2022-11-15T00:00:36;70.30;;;35.80;;
21091;SDS011;10704;42.678;23.288;2022-11-15T00:03:21;64.25;;;34.30;;
21091;SDS011;10704;42.678;23.288;2022-11-15T00:06:08;71.55;;;35.00;;
21091;SDS011;10704;42.678;23.288;2022-11-15T00:08:53;69.00;;;36.47;;
21091;SDS011;10704;42.678;23.288;2022-11-15T00:11:37;69.28;;;37.38;;
21091;SDS011;10704;42.678;23.288;2022-11-15T00:14:22;68.80;;;35.05;;
21091;SDS011;10704;42.678;23.288;2022-11-15T00:17:06;69.57;;;35.67;;
21091;SDS011;10704;42.678;23.288;2022-11-15T00:19:51;66.28;;;34.95;;
21091;SDS011;10704;42.678;23.288;2022-11-15T00:22:36;69.45;;;35.13;;
21091;SDS011;10704;42.678;23.288;2022-11-15T00:25:20;68.10;;;34.28;;
21091;SDS011;10704;42.678;23.288;2022-11-15T00:28:05;69.60;;;35.08;;
21091;SDS011;10704;42.678;23.288;2022-11-15T00:30:49;72.25;;;35.88;;
21091;SDS011;10704;42.678;23.288;2022-11-15T00:33:34;63.22;;;34.47;;
21091;SDS011;10704;42.678;23.288;2022-11-15T00:36:18;65.35;;;34.90;;
21091;SDS011;10704;42.678;23.288;2022-11-15T00:39:04;69.00;;;36.47;;
21091;SDS011;10704;42.678;23.288;2022-11-15T00:41:51;66.20;;;34.55;;
21091;SDS011;10704;42.678;23.288;2022-11-15T00:44:36;71.18;;;34.00;;
21091;SDS011;10704;42.678;23.288;2022-11-15T00:47:20;68.38;;;35.70;;
21091;SDS011;10704;42.678;23.288;2022-11-15T00:50:05;72.03;;;36.20;;
21091;SDS011;10704;42.678;23.288;2022-11-15T00:52:53;66.80;;;33.13;;
21091;SDS011;10704;42.678;23.288;2022-11-15T00:55:37;69.47;;;35.80;;
21091;SDS011;10704;42.678;23.288;2022-11-15T00:58:22;65.78;;;32.45;;
21091;SDS011;10704;42.678;23.288;2022-11-15T01:01:10;66.38;;;32.85;;
21091;SDS011;10704;42.678;23.288;2022-11-15T01:03:56;63.50;;;34.88;;
21091;SDS011;10704;42.678;23.288;2022-11-15T01:06:41;62.72;;;32.75;;
21091;SDS011;10704;42.678;23.288;2022-11-15T01:09:26;63.20;;;32.20;;
21091;SDS011;10704;42.678;23.288;2022-11-15T01:12:10;66.55;;;33.13;;
21091;SDS011;10704;42.678;23.288;2022-11-15T01:15:27;62.50;;;33.00;;
21091;SDS011;10704;42.678;23.288;2022-11-15T01:18:11;64.70;;;31.83;;
21091;SDS011;10704;42.678;23.288;2022-11-15T01:20:56;64.55;;;32.90;;
21091;SDS011;10704;42.678;23.288;2022-11-15T01:23:40;63.58;;;32.40;;
21091;SDS011;10704;42.678;23.288;2022-11-15T01:26:26;67.57;;;31.77;;
21091;SDS011;10704;42.678;23.288;2022-11-15T01:29:10;59.33;;;31.10;;
21091;SDS011;10704;42.678;23.288;2022-11-15T01:31:55;58.08;;;29.75;;
21091;SDS011;10704;42.678;23.288;2022-11-15T01:34:40;57.97;;;31.20;;
21091;SDS011;10704;42.678;23.288;2022-11-15T01:37:27;55.13;;;29.08;;
21091;SDS011;10704;42.678;23.288;2022-11-15T01:40:11;54.00;;;28.85;;
21091;SDS011;10704;42.678;23.288;2022-11-15T01:42:56;57.20;;;29.60;;
21091;SDS011;10704;42.678;23.288;2022-11-15T01:45:41;53.45;;;27.33;;
21091;SDS011;10704;42.678;23.288;2022-11-15T01:48:27;53.50;;;27.63;;
21091;SDS011;10704;42.678;23.288;2022-11-15T01:51:16;61.03;;;30.38;;
21091;SDS011;10704;42.678;23.288;2022-11-15T01:54:07;57.67;;;29.38;;
21091;SDS011;10704;42.678;23.288;2022-11-15T01:56:59;57.35;;;29.25;;
21091;SDS011;10704;42.678;23.288;2022-11-15T01:59:47;64.50;;;30.92;;
21091;SDS011;10704;42.678;23.288;2022-11-15T02:02:32;63.78;;;31.80;;
21091;SDS011;10704;42.678;23.288;2022-11-15T02:05:19;66.03;;;33.30;;
21091;SDS011;10704;42.678;23.288;2022-11-15T02:08:04;61.85;;;31.73;;
21091;SDS011;10704;42.678;23.288;2022-11-15T02:10:49;64.13;;;33.30;;
21091;SDS011;10704;42.678;23.288;2022-11-15T02:13:34;59.90;;;32.00;;
21091;SDS011;10704;42.678;23.288;2022-11-15T02:16:40;61.25;;;32.45;;
21091;SDS011;10704;42.678;23.288;2022-11-15T02:25:41;62.88;;;32.17;;
21091;SDS011;10704;42.678;23.288;2022-11-15T02:34:44;66.32;;;35.65;;
21091;SDS011;10704;42.678;23.288;2022-11-15T02:40:27;65.50;;;34.05;;
21091;SDS011;10704;42.678;23.288;2022-11-15T02:43:19;67.47;;;32.67;;
21091;SDS011;10704;42.678;23.288;2022-11-15T02:49:47;69.57;;;37.58;;
21091;SDS011;10704;42.678;23.288;2022-11-15T02:52:33;79.05;;;42.30;;
21091;SDS011;10704;42.678;23.288;2022-11-15T02:55:34;81.13;;;43.90;;
21091;SDS011;10704;42.678;23.288;2022-11-15T03:07:29;83.85;;;43.75;;
21091;SDS011;10704;42.678;23.288;2022-11-15T03:13:49;86.75;;;43.65;;
21091;SDS011;10704;42.678;23.288;2022-11-15T03:16:55;82.28;;;42.85;;
21091;SDS011;10704;42.678;23.288;2022-11-15T03:19:59;93.28;;;42.38;;
21091;SDS011;10704;42.678;23.288;2022-11-15T03:22:46;84.65;;;43.58;;
21091;SDS011;10704;42.678;23.288;2022-11-15T03:25:33;89.45;;;44.58;;
21091;SDS011;10704;42.678;23.288;2022-11-15T03:28:23;95.05;;;45.35;;
21091;SDS011;10704;42.678;23.288;2022-11-15T03:31:19;93.65;;;45.67;;
21091;SDS011;10704;42.678;23.288;2022-11-15T03:34:31;107.70;;;48.70;;
21091;SDS011;10704;42.678;23.288;2022-11-15T03:37:24;102.35;;;46.50;;
21091;SDS011;10704;42.678;23.288;2022-11-15T03:40:22;97.43;;;44.45;;
21091;SDS011;10704;42.678;23.288;2022-11-15T03:46:06;108.05;;;46.22;;
21091;SDS011;10704;42.678;23.288;2022-11-15T03:49:00;104.63;;;46.92;;
21091;SDS011;10704;42.678;23.288;2022-11-15T03:51:52;103.45;;;44.33;;
21091;SDS011;10704;42.678;23.288;2022-11-15T03:54:53;103.35;;;42.20;;
21091;SDS011;10704;42.678;23.288;2022-11-15T03:57:39;108.60;;;45.25;;
21091;SDS011;10704;42.678;23.288;2022-11-15T04:00:24;102.28;;;45.22;;
21091;SDS011;10704;42.678;23.288;2022-11-15T04:03:08;106.95;;;45.10;;
21091;SDS011;10704;42.678;23.288;2022-11-15T04:05:53;99.53;;;41.88;;
21091;SDS011;10704;42.678;23.288;2022-11-15T04:08:37;110.18;;;43.55;;
21091;SDS011;10704;42.678;23.288;2022-11-15T04:11:22;110.70;;;42.42;;
21091;SDS011;10704;42.678;23.288;2022-11-15T04:14:09;110.00;;;42.40;;
21091;SDS011;10704;42.678;23.288;2022-11-15T04:16:54;104.22;;;43.67;;
21091;SDS011;10704;42.678;23.288;2022-11-15T04:19:39;116.25;;;45.67;;
21091;SDS011;10704;42.678;23.288;2022-11-15T04:22:42;117.32;;;46.20;;
21091;SDS011;10704;42.678;23.288;2022-11-15T04:25:45;105.22;;;41.63;;
21091;SDS011;10704;42.678;23.288;2022-11-15T04:28:34;99.45;;;42.47;;
21091;SDS011;10704;42.678;23.288;2022-11-15T04:31:18;112.22;;;41.53;;
21091;SDS011;10704;42.678;23.288;2022-11-15T04:34:03;121.25;;;44.88;;
21091;SDS011;10704;42.678;23.288;2022-11-15T04:36:48;104.68;;;44.10;;
21091;SDS011;10704;42.678;23.288;2022-11-15T04:39:51;103.22;;;43.78;;
21091;SDS011;10704;42.678;23.288;2022-11-15T04:42:35;103.65;;;42.25;;
21091;SDS011;10704;42.678;23.288;2022-11-15T04:45:20;115.53;;;43.45;;
21091;SDS011;10704;42.678;23.288;2022-11-15T04:48:04;111.03;;;46.83;;
21091;SDS011;10704;42.678;23.288;2022-11-15T04:50:49;108.88;;;46.17;;
21091;SDS011;10704;42.678;23.288;2022-11-15T04:53:34;120.05;;;46.45;;
21091;SDS011;10704;42.678;23.288;2022-11-15T04:56:18;111.93;;;44.13;;
21091;SDS011;10704;42.678;23.288;2022-11-15T04:59:03;106.97;;;45.15;;
21091;SDS011;10704;42.678;23.288;2022-11-15T05:01:48;111.72;;;44.22;;
21091;SDS011;10704;42.678;23.288;2022-11-15T05:04:32;107.95;;;47.17;;
21091;SDS011;10704;42.678;23.288;2022-11-15T05:07:17;126.20;;;51.17;;
21091;SDS011;10704;42.678;23.288;2022-11-15T05:10:01;134.70;;;52.95;;
21091;SDS011;10704;42.678;23.288;2022-11-15T05:12:46;130.10;;;54.25;;
21091;SDS011;10704;42.678;23.288;2022-11-15T05:15:30;141.38;;;55.28;;
21091;SDS011;10704;42.678;23.288;2022-11-15T05:18:15;142.23;;;56.33;;
21091;SDS011;10704;42.678;23.288;2022-11-15T05:21:03;134.18;;;56.65;;
21091;SDS011;10704;42.678;23.288;2022-11-15T05:23:49;138.88;;;58.00;;
21091;SDS011;10704;42.678;23.288;2022-11-15T05:26:33;128.68;;;53.67;;
21091;SDS011;10704;42.678;23.288;2022-11-15T05:29:18;138.10;;;54.47;;
21091;SDS011;10704;42.678;23.288;2022-11-15T05:32:03;139.93;;;55.42;;
21091;SDS011;10704;42.678;23.288;2022-11-15T05:34:49;130.13;;;53.95;;
21091;SDS011;10704;42.678;23.288;2022-11-15T05:44:47;128.52;;;48.15;;
21091;SDS011;10704;42.678;23.288;2022-11-15T05:47:36;107.93;;;43.67;;
21091;SDS011;10704;42.678;23.288;2022-11-15T05:50:22;108.60;;;44.63;;
21091;SDS011;10704;42.678;23.288;2022-11-15T05:56:54;102.25;;;42.80;;
21091;SDS011;10704;42.678;23.288;2022-11-15T05:59:51;115.80;;;42.83;;
21091;SDS011;10704;42.678;23.288;2022-11-15T06:06:26;112.93;;;44.30;;
21091;SDS011;10704;42.678;23.288;2022-11-15T06:09:11;122.22;;;47.88;;
21091;SDS011;10704;42.678;23.288;2022-11-15T06:11:56;134.90;;;48.75;;
21091;SDS011;10704;42.678;23.288;2022-11-15T06:14:41;125.97;;;49.78;;
21091;SDS011;10704;42.678;23.288;2022-11-15T06:17:25;126.78;;;49.63;;
21091;SDS011;10704;42.678;23.288;2022-11-15T06:20:10;134.48;;;47.97;;
21091;SDS011;10704;42.678;23.288;2022-11-15T06:22:58;128.50;;;49.85;;
21091;SDS011;10704;42.678;23.288;2022-11-15T06:25:44;140.15;;;51.92;;
21091;SDS011;10704;42.678;23.288;2022-11-15T06:28:29;133.95;;;51.13;;
21091;SDS011;10704;42.678;23.288;2022-11-15T06:31:14;133.05;;;43.85;;
21091;SDS011;10704;42.678;23.288;2022-11-15T06:33:58;125.82;;;48.33;;
21091;SDS011;10704;42.678;23.288;2022-11-15T06:36:43;127.30;;;48.08;;
21091;SDS011;10704;42.678;23.288;2022-11-15T06:39:27;143.10;;;50.33;;
21091;SDS011;10704;42.678;23.288;2022-11-15T06:42:12;151.55;;;52.75;;
21091;SDS011;10704;42.678;23.288;2022-11-15T06:44:57;159.60;;;54.80;;
21091;SDS011;10704;42.678;23.288;2022-11-15T06:51:29;152.45;;;54.50;;
21091;SDS011;10704;42.678;23.288;2022-11-15T06:54:14;161.35;;;54.60;;
21091;SDS011;10704;42.678;23.288;2022-11-15T06:56:58;153.23;;;55.75;;
21091;SDS011;10704;42.678;23.288;2022-11-15T06:59:43;153.98;;;56.00;;
21091;SDS011;10704;42.678;23.288;2022-11-15T07:02:27;142.88;;;55.30;;
21091;SDS011;10704;42.678;23.288;2022-11-15T07:05:12;150.45;;;54.83;;
21091;SDS011;10704;42.678;23.288;2022-11-15T07:07:58;139.43;;;55.88;;
21091;SDS011;10704;42.678;23.288;2022-11-15T07:14:30;146.05;;;55.25;;
21091;SDS011;10704;42.678;23.288;2022-11-15T07:17:15;137.55;;;54.33;;
21091;SDS011;10704;42.678;23.288;2022-11-15T07:19:59;118.95;;;50.22;;
21091;SDS011;10704;42.678;23.288;2022-11-15T07:33:31;96.30;;;43.30;;
21091;SDS011;10704;42.678;23.288;2022-11-15T07:40:03;108.05;;;43.35;;
21091;SDS011;10704;42.678;23.288;2022-11-15T07:46:36;102.15;;;44.28;;
21091;SDS011;10704;42.678;23.288;2022-11-15T07:52:29;110.93;;;46.88;;
21091;SDS011;10704;42.678;23.288;2022-11-15T07:55:13;103.18;;;44.47;;
21091;SDS011;10704;42.678;23.288;2022-11-15T07:58:05;111.75;;;47.55;;
21091;SDS011;10704;42.678;23.288;2022-11-15T08:00:50;99.40;;;44.88;;
21091;SDS011;10704;42.678;23.288;2022-11-15T08:03:35;112.40;;;45.83;;
21091;SDS011;10704;42.678;23.288;2022-11-15T08:06:20;106.40;;;47.63;;
21091;SDS011;10704;42.678;23.288;2022-11-15T08:09:05;114.00;;;49.70;;
21091;SDS011;10704;42.678;23.288;2022-11-15T08:11:51;124.55;;;52.92;;
21091;SDS011;10704;42.678;23.288;2022-11-15T08:14:36;122.57;;;52.67;;
21091;SDS011;10704;42.678;23.288;2022-11-15T08:21:09;124.50;;;55.10;;
21091;SDS011;10704;42.678;23.288;2022-11-15T08:23:55;125.65;;;54.92;;
21091;SDS011;10704;42.678;23.288;2022-11-15T08:30:26;145.18;;;60.38;;
21091;SDS011;10704;42.678;23.288;2022-11-15T08:36:59;149.32;;;59.85;;
21091;SDS011;10704;42.678;23.288;2022-11-15T08:39:44;139.57;;;59.83;;
21091;SDS011;10704;42.678;23.288;2022-11-15T08:42:28;126.95;;;52.33;;
21091;SDS011;10704;42.678;23.288;2022-11-15T08:45:13;118.15;;;51.35;;
21091;SDS011;10704;42.678;23.288;2022-11-15T08:47:58;115.30;;;50.83;;
21091;SDS011;10704;42.678;23.288;2022-11-15T08:50:45;116.80;;;53.03;;
21091;SDS011;10704;42.678;23.288;2022-11-15T08:53:29;116.25;;;53.05;;
21091;SDS011;10704;42.678;23.288;2022-11-15T08:56:14;121.47;;;53.90;;
21091;SDS011;10704;42.678;23.288;2022-11-15T08:58:59;128.20;;;53.38;;
21091;SDS011;10704;42.678;23.288;2022-11-15T09:01:43;123.30;;;53.97;;
21091;SDS011;10704;42.678;23.288;2022-11-15T09:04:28;122.55;;;54.40;;
21091;SDS011;10704;42.678;23.288;2022-11-15T09:07:13;121.50;;;55.20;;
21091;SDS011;10704;42.678;23.288;2022-11-15T09:09:57;140.15;;;60.03;;
21091;SDS011;10704;42.678;23.288;2022-11-15T09:12:42;134.27;;;56.47;;
21091;SDS011;10704;42.678;23.288;2022-11-15T09:15:27;132.77;;;56.72;;
21091;SDS011;10704;42.678;23.288;2022-11-15T09:18:11;130.30;;;56.28;;
21091;SDS011;10704;42.678;23.288;2022-11-15T09:20:57;124.90;;;55.72;;
21091;SDS011;10704;42.678;23.288;2022-11-15T09:23:42;127.03;;;55.58;;
21091;SDS011;10704;42.678;23.288;2022-11-15T09:26:27;135.68;;;57.28;;
21091;SDS011;10704;42.678;23.288;2022-11-15T09:29:11;125.50;;;59.72;;
21091;SDS011;10704;42.678;23.288;2022-11-15T09:31:56;124.93;;;56.60;;
21091;SDS011;10704;42.678;23.288;2022-11-15T09:34:40;114.18;;;52.80;;
21091;SDS011;10704;42.678;23.288;2022-11-15T09:37:25;107.55;;;52.20;;
21091;SDS011;10704;42.678;23.288;2022-11-15T09:40:13;116.07;;;52.75;;
21091;SDS011;10704;42.678;23.288;2022-11-15T09:49:06;103.85;;;51.53;;
21091;SDS011;10704;42.678;23.288;2022-11-15T09:51:50;110.72;;;50.72;;
21091;SDS011;10704;42.678;23.288;2022-11-15T09:54:29;99.10;;;51.38;;
21091;SDS011;10704;42.678;23.288;2022-11-15T09:57:03;99.47;;;50.55;;
21091;SDS011;10704;42.678;23.288;2022-11-15T10:02:49;94.82;;;47.90;;
21091;SDS011;10704;42.678;23.288;2022-11-15T10:05:22;100.60;;;50.05;;
21091;SDS011;10704;42.678;23.288;2022-11-15T10:11:01;105.43;;;51.03;;
21091;SDS011;10704;42.678;23.288;2022-11-15T10:13:43;101.68;;;51.72;;
21091;SDS011;10704;42.678;23.288;2022-11-15T10:21:46;104.60;;;51.58;;
21091;SDS011;10704;42.678;23.288;2022-11-15T10:24:19;110.07;;;54.78;;
21091;SDS011;10704;42.678;23.288;2022-11-15T10:26:49;111.35;;;53.90;;
21091;SDS011;10704;42.678;23.288;2022-11-15T10:29:19;103.93;;;56.38;;
21091;SDS011;10704;42.678;23.288;2022-11-15T10:31:46;106.97;;;55.45;;
21091;SDS011;10704;42.678;23.288;2022-11-15T10:34:13;112.05;;;55.97;;
21091;SDS011;10704;42.678;23.288;2022-11-15T10:37:05;104.28;;;55.30;;
21091;SDS011;10704;42.678;23.288;2022-11-15T10:39:31;101.88;;;54.53;;
21091;SDS011;10704;42.678;23.288;2022-11-15T10:42:00;99.28;;;52.80;;
21091;SDS011;10704;42.678;23.288;2022-11-15T10:44:50;102.32;;;54.97;;
21091;SDS011;10704;42.678;23.288;2022-11-15T10:47:20;93.97;;;52.63;;
21091;SDS011;10704;42.678;23.288;2022-11-15T10:49:53;102.28;;;54.58;;
21091;SDS011;10704;42.678;23.288;2022-11-15T10:52:21;97.43;;;53.10;;
21091;SDS011;10704;42.678;23.288;2022-11-15T10:57:47;90.28;;;52.13;;
21091;SDS011;10704;42.678;23.288;2022-11-15T11:03:08;90.60;;;51.70;;
21091;SDS011;10704;42.678;23.288;2022-11-15T11:05:44;87.38;;;47.85;;
21091;SDS011;10704;42.678;23.288;2022-11-15T11:10:36;80.97;;;45.28;;
21091;SDS011;10704;42.678;23.288;2022-11-15T11:13:13;82.85;;;45.85;;
21091;SDS011;10704;42.678;23.288;2022-11-15T11:24:13;88.53;;;48.72;;
21091;SDS011;10704;42.678;23.288;2022-11-15T11:29:20;93.45;;;53.70;;
21091;SDS011;10704;42.678;23.288;2022-11-15T11:35:08;83.22;;;51.22;;
21091;SDS011;10704;42.678;23.288;2022-11-15T11:37:45;93.78;;;54.55;;
21091;SDS011;10704;42.678;23.288;2022-11-15T11:48:14;97.68;;;57.58;;
21091;SDS011;10704;42.678;23.288;2022-11-15T11:50:44;96.95;;;57.42;;
21091;SDS011;10704;42.678;23.288;2022-11-15T11:53:32;98.03;;;56.30;;
21091;SDS011;10704;42.678;23.288;2022-11-15T11:56:28;96.63;;;55.05;;
21091;SDS011;10704;42.678;23.288;2022-11-15T11:59:00;100.00;;;56.75;;
21091;SDS011;10704;42.678;23.288;2022-11-15T12:01:36;100.38;;;59.10;;
21091;SDS011;10704;42.678;23.288;2022-11-15T12:04:20;100.97;;;58.05;;
21091;SDS011;10704;42.678;23.288;2022-11-15T12:09:48;102.60;;;57.67;;
21091;SDS011;10704;42.678;23.288;2022-11-15T12:15:02;104.38;;;57.72;;
21091;SDS011;10704;42.678;23.288;2022-11-15T12:17:35;94.57;;;55.75;;
21091;SDS011;10704;42.678;23.288;2022-11-15T12:20:04;115.90;;;64.75;;
21091;SDS011;10704;42.678;23.288;2022-11-15T12:22:59;97.57;;;57.17;;
21091;SDS011;10704;42.678;23.288;2022-11-15T12:33:47;97.55;;;59.00;;
21091;SDS011;10704;42.678;23.288;2022-11-15T12:41:19;94.43;;;54.97;;
21091;SDS011;10704;42.678;23.288;2022-11-15T12:43:47;93.18;;;55.95;;
21091;SDS011;10704;42.678;23.288;2022-11-15T12:47:01;96.20;;;55.85;;
21091;SDS011;10704;42.678;23.288;2022-11-15T12:49:10;97.75;;;56.83;;
21091;SDS011;10704;42.678;23.288;2022-11-15T13:00:36;86.05;;;53.40;;
21091;SDS011;10704;42.678;23.288;2022-11-15T13:02:31;88.70;;;51.88;;
21091;SDS011;10704;42.678;23.288;2022-11-15T13:17:38;93.20;;;53.40;;
21091;SDS011;10704;42.678;23.288;2022-11-15T13:23:54;91.40;;;52.70;;
21091;SDS011;10704;42.678;23.288;2022-11-15T13:26:21;88.22;;;52.97;;
21091;SDS011;10704;42.678;23.288;2022-11-15T13:28:48;92.80;;;54.20;;
21091;SDS011;10704;42.678;23.288;2022-11-15T13:33:46;87.95;;;52.53;;
21091;SDS011;10704;42.678;23.288;2022-11-15T13:36:19;96.00;;;55.70;;
21091;SDS011;10704;42.678;23.288;2022-11-15T13:38:45;89.85;;;54.10;;
21091;SDS011;10704;42.678;23.288;2022-11-15T13:41:22;95.63;;;53.67;;
21091;SDS011;10704;42.678;23.288;2022-11-15T13:43:51;92.43;;;54.20;;
21091;SDS011;10704;42.678;23.288;2022-11-15T13:46:23;89.45;;;53.65;;
21091;SDS011;10704;42.678;23.288;2022-11-15T13:48:54;95.13;;;54.58;;
21091;SDS011;10704;42.678;23.288;2022-11-15T13:54:28;93.55;;;55.40;;
21091;SDS011;10704;42.678;23.288;2022-11-15T13:56:59;92.32;;;54.10;;
21091;SDS011;10704;42.678;23.288;2022-11-15T13:59:37;89.32;;;53.22;;
21091;SDS011;10704;42.678;23.288;2022-11-15T14:02:12;93.60;;;54.28;;
21091;SDS011;10704;42.678;23.288;2022-11-15T14:04:53;94.72;;;53.95;;
21091;SDS011;10704;42.678;23.288;2022-11-15T14:07:44;92.05;;;53.67;;
21091;SDS011;10704;42.678;23.288;2022-11-15T14:10:30;88.03;;;52.42;;
21091;SDS011;10704;42.678;23.288;2022-11-15T14:13:01;93.40;;;54.35;;
21091;SDS011;10704;42.678;23.288;2022-11-15T14:17:59;96.25;;;54.97;;
21091;SDS011;10704;42.678;23.288;2022-11-15T14:20:33;97.57;;;54.90;;
21091;SDS011;10704;42.678;23.288;2022-11-15T14:23:05;99.15;;;53.58;;
21091;SDS011;10704;42.678;23.288;2022-11-15T14:25:57;96.38;;;55.25;;
21091;SDS011;10704;42.678;23.288;2022-11-15T14:30:54;106.68;;;58.75;;
21091;SDS011;10704;42.678;23.288;2022-11-15T14:33:27;108.15;;;59.45;;
21091;SDS011;10704;42.678;23.288;2022-11-15T14:36:03;101.63;;;56.45;;
21091;SDS011;10704;42.678;23.288;2022-11-15T14:38:37;105.82;;;57.28;;
21091;SDS011;10704;42.678;23.288;2022-11-15T14:41:02;113.00;;;58.08;;
21091;SDS011;10704;42.678;23.288;2022-11-15T14:43:29;105.72;;;58.92;;
21091;SDS011;10704;42.678;23.288;2022-11-15T14:45:55;99.05;;;54.05;;
21091;SDS011;10704;42.678;23.288;2022-11-15T14:48:20;110.15;;;59.35;;
21091;SDS011;10704;42.678;23.288;2022-11-15T14:50:47;102.20;;;55.40;;
21091;SDS011;10704;42.678;23.288;2022-11-15T14:53:16;106.88;;;57.97;;
21091;SDS011;10704;42.678;23.288;2022-11-15T14:55:43;107.15;;;55.20;;
21091;SDS011;10704;42.678;23.288;2022-11-15T14:58:09;109.65;;;58.83;;
21091;SDS011;10704;42.678;23.288;2022-11-15T15:00:36;109.63;;;54.60;;
21091;SDS011;10704;42.678;23.288;2022-11-15T15:03:03;116.25;;;61.40;;
21091;SDS011;10704;42.678;23.288;2022-11-15T15:05:33;125.82;;;63.63;;
21091;SDS011;10704;42.678;23.288;2022-11-15T15:08:03;118.95;;;62.75;;
21091;SDS011;10704;42.678;23.288;2022-11-15T15:10:36;121.97;;;64.05;;
21091;SDS011;10704;42.678;23.288;2022-11-15T15:13:06;134.80;;;68.93;;
21091;SDS011;10704;42.678;23.288;2022-11-15T15:15:44;119.13;;;64.60;;
21091;SDS011;10704;42.678;23.288;2022-11-15T15:18:11;121.00;;;62.60;;
21091;SDS011;10704;42.678;23.288;2022-11-15T15:20:38;116.18;;;60.97;;
21091;SDS011;10704;42.678;23.288;2022-11-15T15:23:07;114.72;;;60.75;;
21091;SDS011;10704;42.678;23.288;2022-11-15T15:25:44;112.80;;;58.50;;
21091;SDS011;10704;42.678;23.288;2022-11-15T15:28:11;107.32;;;55.00;;
21091;SDS011;10704;42.678;23.288;2022-11-15T15:30:37;97.90;;;51.03;;
21091;SDS011;10704;42.678;23.288;2022-11-15T15:33:03;96.65;;;52.13;;
21091;SDS011;10704;42.678;23.288;2022-11-15T15:35:30;103.22;;;54.42;;
21091;SDS011;10704;42.678;23.288;2022-11-15T15:38:00;104.28;;;54.05;;
21091;SDS011;10704;42.678;23.288;2022-11-15T15:40:28;102.32;;;53.55;;
21091;SDS011;10704;42.678;23.288;2022-11-15T15:42:55;99.75;;;52.33;;
21091;SDS011;10704;42.678;23.288;2022-11-15T15:45:21;99.47;;;54.20;;
21091;SDS011;10704;42.678;23.288;2022-11-15T15:47:48;108.57;;;55.53;;
21091;SDS011;10704;42.678;23.288;2022-11-15T15:52:43;107.50;;;53.40;;
21091;SDS011;10704;42.678;23.288;2022-11-15T15:55:09;107.03;;;55.75;;
21091;SDS011;10704;42.678;23.288;2022-11-15T15:57:35;99.28;;;54.47;;
21091;SDS011;10704;42.678;23.288;2022-11-15T16:00:02;105.43;;;53.92;;
21091;SDS011;10704;42.678;23.288;2022-11-15T16:02:37;102.82;;;54.13;;
21091;SDS011;10704;42.678;23.288;2022-11-15T16:05:04;111.93;;;57.20;;
21091;SDS011;10704;42.678;23.288;2022-11-15T16:07:30;110.00;;;56.85;;
21091;SDS011;10704;42.678;23.288;2022-11-15T16:09:56;110.07;;;56.55;;
21091;SDS011;10704;42.678;23.288;2022-11-15T16:12:28;107.85;;;57.65;;
21091;SDS011;10704;42.678;23.288;2022-11-15T16:14:55;108.70;;;58.22;;
21091;SDS011;10704;42.678;23.288;2022-11-15T16:17:22;104.63;;;55.75;;
21091;SDS011;10704;42.678;23.288;2022-11-15T16:19:50;116.03;;;58.20;;
21091;SDS011;10704;42.678;23.288;2022-11-15T16:22:16;111.22;;;57.85;;
21091;SDS011;10704;42.678;23.288;2022-11-15T16:24:42;111.22;;;57.15;;
21091;SDS011;10704;42.678;23.288;2022-11-15T16:27:17;109.47;;;58.28;;
21091;SDS011;10704;42.678;23.288;2022-11-15T16:29:45;115.28;;;56.70;;
21091;SDS011;10704;42.678;23.288;2022-11-15T16:32:11;117.28;;;58.95;;
21091;SDS011;10704;42.678;23.288;2022-11-15T16:34:37;123.22;;;61.90;;
21091;SDS011;10704;42.678;23.288;2022-11-15T16:37:03;129.25;;;74.75;;
21091;SDS011;10704;42.678;23.288;2022-11-15T16:39:30;150.57;;;83.47;;
21091;SDS011;10704;42.678;23.288;2022-11-15T16:41:57;183.65;;;100.72;;
21091;SDS011;10704;42.678;23.288;2022-11-15T16:44:23;179.20;;;98.45;;
21091;SDS011;10704;42.678;23.288;2022-11-15T16:46:50;177.27;;;99.53;;
21091;SDS011;10704;42.678;23.288;2022-11-15T16:49:16;169.48;;;90.82;;
21091;SDS011;10704;42.678;23.288;2022-11-15T16:51:47;158.55;;;86.32;;
21091;SDS011;10704;42.678;23.288;2022-11-15T16:54:14;153.65;;;81.57;;
21091;SDS011;10704;42.678;23.288;2022-11-15T16:56:43;165.50;;;88.57;;
21091;SDS011;10704;42.678;23.288;2022-11-15T16:59:10;159.02;;;88.68;;
21091;SDS011;10704;42.678;23.288;2022-11-15T17:01:41;165.40;;;89.30;;
21091;SDS011;10704;42.678;23.288;2022-11-15T17:04:15;145.75;;;81.57;;
21091;SDS011;10704;42.678;23.288;2022-11-15T17:06:43;132.50;;;71.32;;
21091;SDS011;10704;42.678;23.288;2022-11-15T17:09:16;121.93;;;64.78;;
21091;SDS011;10704;42.678;23.288;2022-11-15T17:11:43;126.05;;;62.72;;
21091;SDS011;10704;42.678;23.288;2022-11-15T17:14:09;122.10;;;60.53;;
21091;SDS011;10704;42.678;23.288;2022-11-15T17:16:36;115.50;;;59.50;;
21091;SDS011;10704;42.678;23.288;2022-11-15T17:19:13;111.28;;;58.05;;
21091;SDS011;10704;42.678;23.288;2022-11-15T17:21:40;111.38;;;56.28;;
21091;SDS011;10704;42.678;23.288;2022-11-15T17:24:07;108.53;;;56.38;;
21091;SDS011;10704;42.678;23.288;2022-11-15T17:26:34;107.50;;;57.50;;
21091;SDS011;10704;42.678;23.288;2022-11-15T17:29:00;109.28;;;56.97;;
21091;SDS011;10704;42.678;23.288;2022-11-15T17:31:26;107.53;;;59.00;;
21091;SDS011;10704;42.678;23.288;2022-11-15T17:33:54;112.18;;;57.55;;
21091;SDS011;10704;42.678;23.288;2022-11-15T17:36:20;105.20;;;55.67;;
21091;SDS011;10704;42.678;23.288;2022-11-15T17:38:46;110.78;;;57.70;;
21091;SDS011;10704;42.678;23.288;2022-11-15T17:41:17;109.15;;;56.72;;
21091;SDS011;10704;42.678;23.288;2022-11-15T17:43:43;125.07;;;61.78;;
21091;SDS011;10704;42.678;23.288;2022-11-15T17:46:11;112.57;;;58.15;;
21091;SDS011;10704;42.678;23.288;2022-11-15T17:48:45;120.35;;;61.63;;
21091;SDS011;10704;42.678;23.288;2022-11-15T17:51:13;133.35;;;73.03;;
21091;SDS011;10704;42.678;23.288;2022-11-15T17:53:40;146.60;;;81.95;;
21091;SDS011;10704;42.678;23.288;2022-11-15T17:58:36;167.80;;;89.22;;
21091;SDS011;10704;42.678;23.288;2022-11-15T18:03:41;194.43;;;109.57;;
21091;SDS011;10704;42.678;23.288;2022-11-15T18:06:07;196.85;;;115.13;;
21091;SDS011;10704;42.678;23.288;2022-11-15T18:08:37;199.52;;;113.30;;
21091;SDS011;10704;42.678;23.288;2022-11-15T18:11:05;194.40;;;109.75;;
21091;SDS011;10704;42.678;23.288;2022-11-15T18:13:37;191.23;;;108.50;;
21091;SDS011;10704;42.678;23.288;2022-11-15T18:16:04;221.52;;;131.35;;
21091;SDS011;10704;42.678;23.288;2022-11-15T18:18:32;282.65;;;168.07;;
21091;SDS011;10704;42.678;23.288;2022-11-15T18:23:38;255.38;;;154.85;;
21091;SDS011;10704;42.678;23.288;2022-11-15T18:26:05;263.40;;;160.30;;
21091;SDS011;10704;42.678;23.288;2022-11-15T18:28:34;256.48;;;154.63;;
21091;SDS011;10704;42.678;23.288;2022-11-15T18:31:02;258.10;;;153.50;;